Time;durP1;ratioP1;P1;durP2;ratioP2;P2;SDS_P1;SDS_P2;PMS_P1;PMS_P2;Temp;Humidity;BMP_temperature;BMP_pressure;BME280_temperature;BME280_humidity;BME280_pressure;Samples;Min_cycle;Max_cycle;Signal;HPM_P1;HPM_P2
2023/01/15 00:01:29;;;;;;;9.57;2.22;;;6.10;99.90;;;;;;5040867;28;20147;-63
2023/01/15 00:03:57;;;;;;;12.82;2.58;;;6.10;99.90;;;;;;5044579;28;20037;-61
2023/01/15 00:06:24;;;;;;;10.15;2.42;;;6.10;99.90;;;;;;5041451;28;20052;-62
2023/01/15 00:08:51;;;;;;;10.07;2.00;;;6.10;99.90;;;;;;5039834;28;20033;-62
2023/01/15 00:11:18;;;;;;;13.48;2.05;;;6.20;99.90;;;;;;5014765;28;20051;-62
2023/01/15 00:13:45;;;;;;;17.73;2.28;;;6.10;99.90;;;;;;5039780;28;20045;-63
2023/01/15 00:16:22;;;;;;;12.27;2.08;;;6.10;99.90;;;;;;5011773;28;20060;-63
2023/01/15 00:18:56;;;;;;;13.60;2.20;;;6.10;99.90;;;;;;5022133;28;20100;-62
2023/01/15 00:21:23;;;;;;;11.80;2.15;;;6.20;99.90;;;;;;5036789;28;20190;-62
2023/01/15 00:29:19;;;;;;;8.55;2.40;;;6.10;99.90;;;;;;5038344;28;20048;-62
2023/01/15 00:31:56;;;;;;;16.08;2.10;;;6.10;99.90;;;;;;5040404;28;20045;-62
2023/01/15 00:34:22;;;;;;;15.57;2.58;;;6.20;99.90;;;;;;5038565;28;20044;-63
2023/01/15 00:36:48;;;;;;;16.58;3.00;;;6.10;99.90;;;;;;5022711;28;20060;-62
2023/01/15 00:39:14;;;;;;;16.00;2.53;;;6.10;99.90;;;;;;5020833;28;20048;-62
2023/01/15 00:41:40;;;;;;;12.20;2.20;;;6.20;99.90;;;;;;5019385;28;20037;-62
2023/01/15 00:44:05;;;;;;;13.52;2.08;;;6.10;99.90;;;;;;5035638;28;20052;-62
2023/01/15 00:46:31;;;;;;;14.15;2.13;;;6.10;99.90;;;;;;5038064;28;20133;-61
2023/01/15 00:48:57;;;;;;;12.77;2.63;;;6.10;99.90;;;;;;5041339;28;20194;-62
2023/01/15 00:51:23;;;;;;;17.27;2.40;;;6.20;99.90;;;;;;5036575;28;20475;-62
2023/01/15 00:53:49;;;;;;;14.68;2.70;;;6.20;99.90;;;;;;5018782;28;20399;-63
2023/01/15 00:56:15;;;;;;;15.90;2.40;;;6.10;99.90;;;;;;5019800;28;20053;-62
2023/01/15 00:58:41;;;;;;;14.50;2.33;;;6.20;99.90;;;;;;5036215;28;20132;-62
2023/01/15 01:01:07;;;;;;;14.52;2.22;;;6.20;99.90;;;;;;5003462;28;20049;-62
2023/01/15 01:03:33;;;;;;;13.68;2.00;;;6.10;99.90;;;;;;5038464;28;20487;-62
2023/01/15 01:06:00;;;;;;;13.57;2.20;;;6.20;99.90;;;;;;5040469;28;20052;-62
2023/01/15 01:08:26;;;;;;;18.73;2.67;;;6.10;99.90;;;;;;5043116;28;20130;-62
2023/01/15 01:11:07;;;;;;;16.02;2.42;;;6.10;99.90;;;;;;5026869;28;20040;-62
2023/01/15 01:13:34;;;;;;;14.20;2.30;;;6.20;99.90;;;;;;5044044;28;20048;-62
2023/01/15 01:16:03;;;;;;;15.20;2.45;;;6.20;99.90;;;;;;5042297;28;20056;-63
2023/01/15 01:18:29;;;;;;;15.00;2.30;;;6.20;99.90;;;;;;5027369;28;20961;-62
2023/01/15 01:20:55;;;;;;;11.43;2.45;;;6.10;99.90;;;;;;5041263;28;20045;-62
2023/01/15 01:23:23;;;;;;;20.92;2.67;;;6.10;99.90;;;;;;5045759;28;20090;-63
2023/01/15 01:25:48;;;;;;;14.95;2.55;;;6.10;99.90;;;;;;5029439;28;20052;-63
2023/01/15 01:28:14;;;;;;;13.43;2.40;;;6.10;99.90;;;;;;5043883;28;20037;-62
2023/01/15 01:30:41;;;;;;;17.60;2.95;;;6.10;99.90;;;;;;5047757;28;20041;-62
2023/01/15 01:33:07;;;;;;;15.70;2.72;;;6.10;99.90;;;;;;5048666;28;20069;-62
2023/01/15 01:35:33;;;;;;;16.35;2.55;;;6.10;99.90;;;;;;5042351;28;20120;-62
2023/01/15 01:37:59;;;;;;;11.07;2.00;;;6.10;99.90;;;;;;5043057;28;20442;-62
2023/01/15 01:40:24;;;;;;;15.43;2.92;;;6.10;99.90;;;;;;5042085;28;20139;-62
2023/01/15 01:42:50;;;;;;;17.83;2.78;;;6.10;99.90;;;;;;5021220;28;20055;-62
2023/01/15 01:45:31;;;;;;;15.10;3.08;;;6.10;99.90;;;;;;5025537;28;20051;-62
2023/01/15 01:48:01;;;;;;;13.18;2.20;;;6.10;99.90;;;;;;5039724;28;20040;-62
2023/01/15 01:50:28;;;;;;;22.65;2.65;;;6.10;99.90;;;;;;5047193;28;20422;-62
2023/01/15 01:53:05;;;;;;;10.35;2.10;;;6.10;99.90;;;;;;5023855;28;20055;-63
2023/01/15 01:55:33;;;;;;;15.65;2.47;;;6.10;99.90;;;;;;5046346;28;20602;-62
2023/01/15 01:58:01;;;;;;;13.50;2.60;;;6.10;99.90;;;;;;5044929;28;20136;-62
2023/01/15 02:00:28;;;;;;;16.20;3.00;;;6.00;99.90;;;;;;5042923;28;20044;-62
2023/01/15 02:02:55;;;;;;;16.50;2.63;;;6.10;99.90;;;;;;5042078;28;20076;-63
2023/01/15 02:05:34;;;;;;;21.65;2.78;;;6.10;99.90;;;;;;5009753;28;20047;-61
2023/01/15 02:08:00;;;;;;;14.13;2.85;;;6.00;99.90;;;;;;5022292;28;20380;-62
2023/01/15 02:10:26;;;;;;;17.23;2.97;;;6.10;99.90;;;;;;5041701;28;20056;-62
2023/01/15 02:13:15;;;;;;;13.40;1.98;;;6.10;99.90;;;;;;5042621;28;20041;-63
2023/01/15 02:15:47;;;;;;;16.40;3.05;;;6.10;99.90;;;;;;5037409;28;20523;-62
2023/01/15 02:18:27;;;;;;;11.00;1.90;;;6.10;99.90;;;;;;5017494;28;20068;-63
2023/01/15 02:21:08;;;;;;;16.23;2.70;;;6.00;99.90;;;;;;5043954;28;20177;-62
2023/01/15 02:24:13;;;;;;;14.23;2.22;;;6.00;99.90;;;;;;5017944;28;20427;-63
2023/01/15 02:26:57;;;;;;;13.07;2.72;;;6.00;99.90;;;;;;5008943;28;20961;-63
2023/01/15 02:29:40;;;;;;;12.32;2.17;;;6.10;99.90;;;;;;5012479;28;20124;-62
2023/01/15 02:32:12;;;;;;;16.48;2.72;;;6.00;99.90;;;;;;5041527;28;20048;-62
2023/01/15 02:34:46;;;;;;;10.02;2.25;;;6.00;99.90;;;;;;5040135;28;20054;-61
2023/01/15 02:37:17;;;;;;;12.32;2.35;;;6.00;99.90;;;;;;5040411;28;20487;-63
2023/01/15 02:39:46;;;;;;;14.93;2.38;;;6.00;99.90;;;;;;5039764;28;20446;-62
2023/01/15 02:42:15;;;;;;;14.40;2.10;;;6.00;99.90;;;;;;5042161;28;20110;-63
2023/01/15 02:44:45;;;;;;;13.90;2.58;;;6.00;99.90;;;;;;5016664;28;20045;-62
2023/01/15 02:47:14;;;;;;;19.70;2.30;;;6.00;99.90;;;;;;5040394;28;20045;-63
2023/01/15 02:49:41;;;;;;;13.93;2.40;;;5.90;99.90;;;;;;5040926;28;20045;-62
2023/01/15 02:52:18;;;;;;;13.77;2.80;;;5.90;99.90;;;;;;5042278;28;20049;-63
2023/01/15 02:54:53;;;;;;;14.57;2.40;;;5.90;99.90;;;;;;5041493;28;20045;-62
2023/01/15 02:57:22;;;;;;;13.07;3.08;;;5.90;99.90;;;;;;5038797;28;20072;-62
2023/01/15 02:59:50;;;;;;;18.55;3.10;;;5.90;99.90;;;;;;5037838;28;20067;-62
2023/01/15 03:02:23;;;;;;;10.80;2.00;;;6.00;99.90;;;;;;5039372;28;20048;-62
2023/01/15 03:05:17;;;;;;;15.48;2.55;;;6.00;99.90;;;;;;5021967;28;20041;-62
2023/01/15 03:07:55;;;;;;;17.65;2.63;;;5.90;99.90;;;;;;5023098;28;20411;-62
2023/01/15 03:10:37;;;;;;;14.27;2.65;;;5.90;99.90;;;;;;5017292;28;20047;-62
2023/01/15 03:13:04;;;;;;;21.95;3.05;;;5.90;99.90;;;;;;5019459;28;20033;-62
2023/01/15 03:18:29;;;;;;;20.60;2.92;;;6.00;99.90;;;;;;5024023;28;20175;-62
2023/01/15 03:21:00;;;;;;;12.65;2.22;;;5.90;99.90;;;;;;5023448;28;20143;-62
2023/01/15 03:23:29;;;;;;;12.93;2.20;;;6.00;99.90;;;;;;5040008;28;20080;-62
2023/01/15 03:25:55;;;;;;;12.90;2.20;;;6.00;99.90;;;;;;5038096;28;20041;-62
2023/01/15 03:28:25;;;;;;;12.25;2.15;;;6.00;99.90;;;;;;5038695;28;20041;-62
2023/01/15 03:30:51;;;;;;;14.98;2.33;;;6.00;99.90;;;;;;5037386;28;20037;-63
2023/01/15 03:33:17;;;;;;;12.35;2.40;;;6.00;99.90;;;;;;5019770;28;20051;-62
2023/01/15 03:35:56;;;;;;;14.15;2.60;;;6.00;99.90;;;;;;5036909;28;20387;-62
2023/01/15 03:38:31;;;;;;;17.98;2.53;;;6.00;99.90;;;;;;5038838;28;20037;-62
2023/01/15 03:41:10;;;;;;;15.32;2.72;;;6.00;99.90;;;;;;5040124;28;20491;-62
2023/01/15 03:43:40;;;;;;;17.08;2.70;;;5.90;99.90;;;;;;5013088;28;20467;-61
2023/01/15 03:46:25;;;;;;;16.30;2.70;;;6.00;99.90;;;;;;5034466;28;20083;-62
2023/01/15 03:49:02;;;;;;;15.05;2.63;;;5.90;99.90;;;;;;5019560;28;20076;-62
2023/01/15 03:51:41;;;;;;;17.08;2.75;;;5.90;99.90;;;;;;5038870;28;20469;-62
2023/01/15 03:54:13;;;;;;;20.63;3.05;;;5.90;99.90;;;;;;5037738;28;20059;-62
2023/01/15 03:56:58;;;;;;;16.30;2.70;;;5.90;99.90;;;;;;5038187;28;20254;-62
2023/01/15 03:59:39;;;;;;;16.13;2.65;;;5.90;99.90;;;;;;5036861;28;20044;-63
2023/01/15 04:02:09;;;;;;;18.27;2.72;;;5.90;99.90;;;;;;5040332;28;20095;-61
2023/01/15 04:04:37;;;;;;;13.48;2.67;;;5.90;99.90;;;;;;5037156;28;20457;-62
2023/01/15 04:07:03;;;;;;;19.33;2.88;;;5.90;99.90;;;;;;5038200;28;20486;-63
2023/01/15 04:09:29;;;;;;;19.10;2.53;;;5.80;99.90;;;;;;5021614;28;20561;-62
2023/01/15 04:11:59;;;;;;;14.73;2.60;;;5.80;99.90;;;;;;5038508;28;20067;-62
2023/01/15 04:14:28;;;;;;;12.55;3.00;;;5.80;99.90;;;;;;5037574;28;20064;-62
2023/01/15 04:16:54;;;;;;;19.48;2.70;;;5.80;99.90;;;;;;5038398;28;21415;-63
2023/01/15 04:19:20;;;;;;;14.60;2.10;;;5.80;99.90;;;;;;5004314;28;20037;-61
2023/01/15 04:21:46;;;;;;;16.15;2.70;;;5.80;99.90;;;;;;5039599;28;20483;-62
2023/01/15 04:24:12;;;;;;;13.63;2.80;;;5.80;99.90;;;;;;5037940;28;20055;-63
2023/01/15 04:26:37;;;;;;;25.55;2.90;;;5.80;99.90;;;;;;5021080;28;20076;-62
2023/01/15 04:29:03;;;;;;;13.00;2.55;;;5.80;99.90;;;;;;5040195;28;20033;-62
2023/01/15 04:31:32;;;;;;;12.90;2.50;;;5.80;99.90;;;;;;5037855;28;20041;-61
2023/01/15 04:33:58;;;;;;;17.70;2.80;;;5.80;99.90;;;;;;5023879;28;20037;-62
2023/01/15 04:36:24;;;;;;;11.73;2.00;;;5.80;99.90;;;;;;5041583;28;20045;-63
2023/01/15 04:38:50;;;;;;;15.13;2.30;;;5.80;99.90;;;;;;5044899;28;20075;-62
2023/01/15 04:44:06;;;;;;;11.00;2.05;;;5.80;99.90;;;;;;5008626;28;20118;-62
2023/01/15 04:46:34;;;;;;;17.50;2.83;;;5.80;99.90;;;;;;5042581;28;20486;-63
2023/01/15 04:49:00;;;;;;;15.95;2.47;;;5.70;99.90;;;;;;5025860;28;20041;-62
2023/01/15 04:51:26;;;;;;;14.27;2.58;;;5.70;99.90;;;;;;5045687;28;20047;-62
2023/01/15 04:53:52;;;;;;;14.00;2.70;;;5.70;99.90;;;;;;5027918;28;20041;-62
2023/01/15 04:56:18;;;;;;;14.57;2.47;;;5.70;99.90;;;;;;5044820;28;20040;-62
2023/01/15 04:58:44;;;;;;;13.30;2.55;;;5.70;99.90;;;;;;5045992;28;20052;-62
2023/01/15 05:01:14;;;;;;;14.65;2.67;;;5.60;99.90;;;;;;5031607;28;20037;-62
2023/01/15 05:03:40;;;;;;;13.88;2.38;;;5.60;99.90;;;;;;5047257;28;20041;-63
2023/01/15 05:06:07;;;;;;;15.32;3.25;;;5.60;99.90;;;;;;5023997;28;20059;-62
2023/01/15 05:08:33;;;;;;;14.35;2.83;;;5.50;99.90;;;;;;5027684;28;20045;-62
2023/01/15 05:11:04;;;;;;;9.75;2.13;;;5.60;99.90;;;;;;5043891;28;20123;-63
2023/01/15 05:13:32;;;;;;;14.48;2.38;;;5.50;99.90;;;;;;5022473;28;20041;-63
2023/01/15 05:16:23;;;;;;;18.90;2.25;;;5.50;99.90;;;;;;5041358;28;20057;-62
2023/01/15 05:18:50;;;;;;;17.52;2.83;;;5.50;99.90;;;;;;5041657;28;20059;-62
2023/01/15 05:21:19;;;;;;;12.45;2.15;;;5.50;99.90;;;;;;5022426;28;20052;-63
2023/01/15 05:23:45;;;;;;;16.92;2.50;;;5.50;99.90;;;;;;5042035;28;20081;-61
2023/01/15 05:26:11;;;;;;;13.13;2.35;;;5.50;99.90;;;;;;5039373;28;20045;-61
2023/01/15 05:28:37;;;;;;;17.10;3.20;;;5.40;99.90;;;;;;5043212;28;20036;-62
2023/01/15 05:31:12;;;;;;;16.30;2.50;;;5.40;99.90;;;;;;5040210;28;20060;-63
2023/01/15 05:33:38;;;;;;;17.65;2.72;;;5.40;99.90;;;;;;5042696;28;20053;-62
2023/01/15 05:36:09;;;;;;;15.27;2.55;;;5.30;99.90;;;;;;5044771;28;20080;-63
2023/01/15 05:38:35;;;;;;;17.27;2.40;;;5.40;99.90;;;;;;5032748;28;20472;-63
2023/01/15 05:41:47;;;;;;;9.65;2.58;;;5.40;99.90;;;;;;5046614;28;20090;-62
2023/01/15 05:43:52;;;;;;;17.58;3.03;;;5.40;99.90;;;;;;5042914;28;20080;-63
2023/01/15 05:46:19;;;;;;;15.63;3.00;;;5.40;99.90;;;;;;5009514;28;20103;-63
2023/01/15 05:48:45;;;;;;;11.30;2.10;;;5.40;99.90;;;;;;5047522;28;20041;-62
2023/01/15 05:51:10;;;;;;;14.70;2.78;;;5.40;99.90;;;;;;5045570;28;20048;-63
2023/01/15 05:53:36;;;;;;;12.85;2.53;;;5.40;99.90;;;;;;5048205;28;20037;-62
2023/01/15 05:56:05;;;;;;;13.45;2.30;;;5.30;99.90;;;;;;5046232;28;20057;-62
2023/01/15 05:58:31;;;;;;;14.23;2.92;;;5.30;99.90;;;;;;5045245;28;20117;-62
2023/01/15 06:00:57;;;;;;;11.15;2.13;;;5.30;99.90;;;;;;5026989;28;20522;-62
2023/01/15 06:03:24;;;;;;;11.02;2.60;;;5.30;99.90;;;;;;5048105;28;20067;-63
2023/01/15 06:05:51;;;;;;;13.32;2.05;;;5.30;99.90;;;;;;5040229;28;20064;-63
2023/01/15 06:08:17;;;;;;;17.05;2.83;;;5.30;99.90;;;;;;5042077;28;20744;-62
2023/01/15 06:10:47;;;;;;;10.98;2.33;;;5.30;99.90;;;;;;5021956;28;20047;-62
2023/01/15 06:13:13;;;;;;;15.82;2.28;;;5.20;99.90;;;;;;5040624;28;20064;-63
2023/01/15 06:15:39;;;;;;;13.07;2.45;;;5.20;99.90;;;;;;5037467;28;20056;-61
2023/01/15 06:18:05;;;;;;;16.80;2.85;;;5.10;99.90;;;;;;5038813;28;21158;-62
2023/01/15 06:20:31;;;;;;;14.60;2.30;;;5.10;99.90;;;;;;5025538;28;20511;-63
2023/01/15 06:22:57;;;;;;;12.93;2.35;;;5.10;99.90;;;;;;5008925;28;20128;-62
2023/01/15 06:25:22;;;;;;;16.73;2.40;;;5.10;99.90;;;;;;5041008;28;20048;-63
2023/01/15 06:27:48;;;;;;;14.90;2.88;;;5.10;99.90;;;;;;5041802;28;20072;-63
2023/01/15 06:30:14;;;;;;;14.55;3.03;;;5.10;99.90;;;;;;5037162;28;20079;-62
2023/01/15 06:32:41;;;;;;;14.82;2.35;;;5.10;99.90;;;;;;5042106;28;22005;-63
2023/01/15 06:35:07;;;;;;;11.82;2.10;;;5.20;99.90;;;;;;5043967;28;20099;-62
2023/01/15 06:37:33;;;;;;;14.10;2.38;;;5.10;99.90;;;;;;5039482;28;20052;-63
2023/01/15 06:39:58;;;;;;;13.18;2.22;;;5.20;99.90;;;;;;5039533;28;20040;-61
2023/01/15 06:47:55;;;;;;;9.18;2.00;;;5.20;99.90;;;;;;5039941;28;20052;-62
2023/01/15 06:50:22;;;;;;;8.73;1.90;;;5.20;99.90;;;;;;5023285;28;20055;-62
2023/01/15 06:52:47;;;;;;;11.18;2.17;;;5.10;99.90;;;;;;5028687;28;20049;-62
2023/01/15 06:55:13;;;;;;;13.25;2.25;;;5.10;99.90;;;;;;5039631;28;20056;-62
2023/01/15 06:57:40;;;;;;;11.10;1.73;;;5.20;99.90;;;;;;5039765;28;20048;-62
2023/01/15 07:00:07;;;;;;;16.48;2.05;;;5.10;99.90;;;;;;5041654;28;20040;-62
2023/01/15 07:02:33;;;;;;;15.30;2.22;;;5.10;99.90;;;;;;5037378;28;20064;-63
2023/01/15 07:04:59;;;;;;;14.98;3.08;;;5.10;99.90;;;;;;5040566;28;20043;-62
2023/01/15 07:07:27;;;;;;;12.82;2.20;;;5.10;99.90;;;;;;5007788;28;20040;-63
2023/01/15 07:09:53;;;;;;;10.63;2.25;;;5.10;99.90;;;;;;5027914;28;20075;-62
2023/01/15 07:12:19;;;;;;;16.90;2.10;;;5.10;99.90;;;;;;5045152;28;20068;-63
2023/01/15 07:14:45;;;;;;;11.45;2.15;;;5.10;99.90;;;;;;5024550;28;20064;-63
2023/01/15 07:17:11;;;;;;;10.30;2.40;;;5.10;99.90;;;;;;5044359;28;20043;-62
2023/01/15 07:19:38;;;;;;;15.00;2.00;;;5.10;99.90;;;;;;5021880;28;21025;-63
2023/01/15 07:22:05;;;;;;;11.82;2.40;;;5.10;99.90;;;;;;5044931;28;20041;-62
2023/01/15 07:24:30;;;;;;;15.45;2.15;;;5.10;99.90;;;;;;5007379;28;20124;-63
2023/01/15 07:26:56;;;;;;;22.25;2.55;;;5.20;99.90;;;;;;5044031;28;20143;-63
2023/01/15 07:29:22;;;;;;;9.63;1.90;;;5.10;99.90;;;;;;5043791;28;20037;-62
2023/01/15 07:31:49;;;;;;;12.25;2.65;;;5.10;99.90;;;;;;5042507;28;20041;-63
2023/01/15 07:34:15;;;;;;;11.27;1.83;;;5.20;99.90;;;;;;5014590;28;20045;-63
2023/01/15 07:36:41;;;;;;;13.52;2.60;;;5.10;99.90;;;;;;5043497;28;20041;-61
2023/01/15 07:39:08;;;;;;;16.55;2.08;;;5.20;99.90;;;;;;5021442;28;20078;-62
2023/01/15 07:50:05;;;;;;;9.57;1.80;;;5.10;99.90;;;;;;5007260;28;20128;-63
2023/01/15 07:52:31;;;;;;;11.77;2.45;;;5.10;99.90;;;;;;5038486;28;20572;-63
2023/01/15 07:54:57;;;;;;;10.93;2.00;;;5.10;99.90;;;;;;5037199;28;20128;-63
2023/01/15 07:57:23;;;;;;;9.93;1.90;;;5.10;99.90;;;;;;5042118;28;20071;-62
2023/01/15 07:59:50;;;;;;;12.20;2.00;;;5.10;99.90;;;;;;5035679;28;20136;-62
2023/01/15 08:02:16;;;;;;;15.27;2.88;;;5.10;99.90;;;;;;5038875;28;20061;-62
2023/01/15 08:04:41;;;;;;;11.10;1.63;;;5.10;99.90;;;;;;5022355;28;20045;-63
2023/01/15 08:07:08;;;;;;;11.18;2.28;;;5.10;99.90;;;;;;5026806;28;20049;-61
2023/01/15 08:09:34;;;;;;;13.55;1.80;;;5.10;99.90;;;;;;5022308;28;20052;-63
2023/01/15 08:15:31;;;;;;;9.48;2.03;;;5.10;99.90;;;;;;5039471;28;20053;-62
2023/01/15 08:17:36;;;;;;;14.93;2.15;;;5.20;99.90;;;;;;5033484;28;20072;-62
2023/01/15 08:20:05;;;;;;;12.38;2.53;;;5.20;99.90;;;;;;5032977;28;20036;-63
2023/01/15 08:22:31;;;;;;;10.40;1.95;;;5.30;99.90;;;;;;5040369;28;20053;-63
2023/01/15 08:24:57;;;;;;;13.88;2.25;;;5.30;99.90;;;;;;5038329;28;20041;-62
2023/01/15 08:27:23;;;;;;;10.15;1.73;;;5.30;99.90;;;;;;5024030;28;20393;-62
2023/01/15 08:29:49;;;;;;;15.73;2.30;;;5.30;99.90;;;;;;5013884;28;20073;-63
2023/01/15 08:32:15;;;;;;;11.80;2.10;;;5.20;99.90;;;;;;5017977;28;20048;-62
2023/01/15 08:34:41;;;;;;;13.18;2.28;;;5.20;99.90;;;;;;5037852;28;20392;-62
2023/01/15 08:37:07;;;;;;;8.77;2.13;;;5.20;99.90;;;;;;5020054;28;20055;-62
2023/01/15 08:39:33;;;;;;;11.75;2.00;;;5.20;99.90;;;;;;5041099;28;20112;-61
2023/01/15 08:41:59;;;;;;;14.95;2.58;;;5.20;99.90;;;;;;5044896;28;20053;-63
2023/01/15 08:44:24;;;;;;;11.90;1.65;;;5.30;99.90;;;;;;5017695;28;20041;-61
2023/01/15 08:46:51;;;;;;;7.03;1.60;;;5.30;99.90;;;;;;5042070;28;20099;-62
2023/01/15 08:49:18;;;;;;;13.75;2.30;;;5.30;99.90;;;;;;5043263;28;20041;-63
2023/01/15 08:51:46;;;;;;;10.93;1.90;;;5.40;99.90;;;;;;5044730;28;20037;-62
2023/01/15 08:54:12;;;;;;;15.38;2.30;;;5.40;99.90;;;;;;5043005;28;20045;-62
2023/01/15 08:56:38;;;;;;;9.45;2.20;;;5.30;99.90;;;;;;5041059;28;20122;-62
2023/01/15 08:59:05;;;;;;;9.85;2.05;;;5.30;99.90;;;;;;5042189;28;20033;-61
2023/01/15 09:01:31;;;;;;;12.63;2.08;;;5.40;99.90;;;;;;5042307;28;20140;-62
2023/01/15 09:03:57;;;;;;;9.93;2.03;;;5.30;99.90;;;;;;5029461;28;20123;-63
2023/01/15 09:06:24;;;;;;;8.80;2.10;;;5.20;99.90;;;;;;5045194;28;20572;-63
2023/01/15 09:08:50;;;;;;;13.50;2.55;;;5.10;99.90;;;;;;5044000;28;20041;-62
2023/01/15 09:11:15;;;;;;;12.73;2.63;;;5.10;99.90;;;;;;5026246;28;20053;-61
2023/01/15 09:13:41;;;;;;;12.35;2.53;;;5.00;99.90;;;;;;5039222;28;20056;-62
2023/01/15 09:16:08;;;;;;;11.70;1.90;;;5.00;99.90;;;;;;5037742;28;20049;-62
2023/01/15 09:18:37;;;;;;;9.77;1.85;;;4.90;99.90;;;;;;5014621;28;20731;-62
2023/01/15 09:21:05;;;;;;;13.50;1.77;;;4.90;99.90;;;;;;5043127;28;20045;-63
2023/01/15 09:23:32;;;;;;;9.55;2.13;;;4.90;99.90;;;;;;5042689;28;20483;-61
2023/01/15 09:26:00;;;;;;;14.18;2.20;;;5.00;99.90;;;;;;5042493;28;20102;-62
2023/01/15 09:28:28;;;;;;;6.93;1.70;;;5.00;99.90;;;;;;5026129;28;20465;-62
2023/01/15 09:30:54;;;;;;;12.80;2.30;;;5.10;99.90;;;;;;5043521;28;20124;-62
2023/01/15 09:33:20;;;;;;;15.68;2.45;;;5.10;99.90;;;;;;5024738;28;20060;-62
2023/01/15 09:35:46;;;;;;;8.55;1.92;;;5.10;99.90;;;;;;5044242;28;20115;-62
2023/01/15 09:38:17;;;;;;;12.90;2.58;;;5.10;99.90;;;;;;5040509;28;20056;-62
2023/01/15 09:40:46;;;;;;;12.40;2.80;;;5.20;99.90;;;;;;5044848;28;20562;-62
2023/01/15 09:43:33;;;;;;;21.52;2.97;;;5.20;99.90;;;;;;5027273;28;20049;-62
2023/01/15 09:46:14;;;;;;;13.52;2.38;;;5.20;99.90;;;;;;5042051;28;20575;-61
2023/01/15 09:48:48;;;;;;;11.23;2.25;;;5.20;99.90;;;;;;5044961;28;20061;-62
2023/01/15 09:51:17;;;;;;;15.82;2.63;;;5.30;99.90;;;;;;5046107;28;20040;-62
2023/01/15 09:53:58;;;;;;;13.52;2.42;;;5.30;99.90;;;;;;5046138;28;20607;-63
2023/01/15 09:56:27;;;;;;;11.30;2.22;;;5.50;99.90;;;;;;5042228;28;20089;-62
2023/01/15 09:58:55;;;;;;;18.30;2.25;;;5.60;99.90;;;;;;5042578;28;20037;-62
2023/01/15 10:01:28;;;;;;;15.55;2.47;;;5.70;99.90;;;;;;5040157;28;24897;-62
2023/01/15 10:04:20;;;;;;;17.48;2.72;;;5.80;99.90;;;;;;5043674;28;20048;-62
2023/01/15 10:07:12;;;;;;;15.60;2.13;;;5.90;99.90;;;;;;5038088;28;20037;-62
2023/01/15 10:09:40;;;;;;;13.00;2.22;;;6.00;99.90;;;;;;5046369;28;20159;-63
2023/01/15 10:12:37;;;;;;;11.70;2.22;;;6.10;99.90;;;;;;5041572;28;20064;-63
2023/01/15 10:15:12;;;;;;;10.32;1.90;;;6.10;99.90;;;;;;5044278;28;20064;-62
2023/01/15 10:17:52;;;;;;;13.43;1.98;;;6.10;99.90;;;;;;5042047;28;20049;-62
2023/01/15 10:20:42;;;;;;;14.93;2.22;;;6.10;99.90;;;;;;5028047;28;20411;-62
2023/01/15 10:23:21;;;;;;;14.05;2.30;;;6.20;99.90;;;;;;5047414;28;20403;-62
2023/01/15 10:25:53;;;;;;;17.42;2.08;;;6.30;99.90;;;;;;5017308;28;20036;-63
2023/01/15 10:28:31;;;;;;;;;;;6.40;99.90;;;;;;5048135;28;20118;-63
2023/01/15 10:31:07;;;;;;;13.75;2.47;;;6.40;99.90;;;;;;5046086;28;19943;-62
2023/01/15 10:33:42;;;;;;;17.98;2.65;;;6.50;99.90;;;;;;5043333;28;20828;-63
2023/01/15 10:36:20;;;;;;;23.38;3.40;;;6.50;99.90;;;;;;5023318;28;20056;-62
2023/01/15 10:39:00;;;;;;;12.68;2.17;;;6.60;99.90;;;;;;5038572;28;20044;-62
2023/01/15 10:41:44;;;;;;;9.27;2.03;;;6.70;99.90;;;;;;5013949;28;20049;-63
2023/01/15 10:44:21;;;;;;;10.93;2.50;;;6.70;99.90;;;;;;5039295;28;20049;-62
2023/01/15 10:46:59;;;;;;;11.43;1.92;;;6.80;99.90;;;;;;5038065;28;20075;-62
2023/01/15 10:49:29;;;;;;;11.23;2.38;;;6.90;99.90;;;;;;5022050;28;20045;-61
2023/01/15 10:52:06;;;;;;;13.52;2.47;;;6.90;99.90;;;;;;5040630;28;20047;-63
2023/01/15 10:54:46;;;;;;;15.45;2.58;;;6.90;99.90;;;;;;5040889;28;20483;-62
2023/01/15 10:57:35;;;;;;;15.45;2.67;;;6.90;99.90;;;;;;5023482;28;20053;-62
2023/01/15 11:00:02;;;;;;;16.35;2.35;;;7.00;99.90;;;;;;5041062;28;20049;-62
2023/01/15 11:02:38;;;;;;;9.10;2.17;;;7.00;99.90;;;;;;5039791;28;20051;-62
2023/01/15 11:05:04;;;;;;;13.95;2.15;;;7.00;99.90;;;;;;5041683;28;20369;-63
2023/01/15 11:07:45;;;;;;;9.63;2.17;;;7.10;99.90;;;;;;5042762;28;20395;-62
2023/01/15 11:10:14;;;;;;;12.27;2.40;;;7.10;99.90;;;;;;5044733;28;20049;-60
2023/01/15 11:21:19;;;;;;;14.73;3.03;;;7.40;99.90;;;;;;5024171;28;20052;-62
2023/01/15 11:23:46;;;;;;;12.80;2.00;;;7.40;99.90;;;;;;5023104;28;20082;-63
2023/01/15 11:26:22;;;;;;;16.17;2.78;;;7.40;99.90;;;;;;5040694;28;20041;-62
2023/01/15 11:28:48;;;;;;;11.43;2.20;;;7.30;99.90;;;;;;5022891;28;20561;-61
2023/01/15 11:31:15;;;;;;;10.25;2.20;;;7.30;99.90;;;;;;5039228;28;20057;-62
2023/01/15 11:33:58;;;;;;;12.27;2.38;;;7.30;99.90;;;;;;5009404;28;20111;-62
2023/01/15 11:36:26;;;;;;;18.98;2.60;;;7.30;99.90;;;;;;5040609;28;20126;-62
2023/01/15 11:38:52;;;;;;;17.58;2.10;;;7.20;99.90;;;;;;5040128;28;20048;-61
2023/01/15 11:52:56;;;;;;;18.63;2.42;;;7.10;99.90;;;;;;5040795;28;20116;-62
2023/01/15 11:55:25;;;;;;;12.80;2.03;;;7.10;99.90;;;;;;5039302;28;20120;-62
2023/01/15 11:57:52;;;;;;;21.17;3.20;;;7.10;99.90;;;;;;5040393;28;20053;-62
2023/01/15 12:00:29;;;;;;;15.90;2.58;;;7.00;99.90;;;;;;5018275;28;20122;-62
2023/01/15 12:03:00;;;;;;;21.08;3.08;;;6.90;99.90;;;;;;5041354;28;20171;-63
2023/01/15 12:05:33;;;;;;;19.33;2.63;;;6.70;99.90;;;;;;5039038;28;20041;-62
2023/01/15 12:08:09;;;;;;;19.10;3.40;;;6.80;99.90;;;;;;5043358;28;20088;-62
2023/01/15 12:11:17;;;;;;;15.93;2.95;;;6.70;99.90;;;;;;5025278;28;20114;-63
2023/01/15 12:14:07;;;;;;;21.48;2.85;;;6.60;99.90;;;;;;5023284;28;20065;-62
2023/01/15 12:16:44;;;;;;;20.73;3.05;;;6.60;99.90;;;;;;5041026;28;20405;-62
2023/01/15 12:19:21;;;;;;;14.15;2.70;;;6.50;99.90;;;;;;5040638;28;20084;-61
2023/01/15 12:21:54;;;;;;;15.25;2.38;;;6.50;99.90;;;;;;5040356;28;20051;-62
2023/01/15 12:24:38;;;;;;;9.18;1.95;;;6.40;99.90;;;;;;5041012;28;20053;-62
2023/01/15 12:27:22;;;;;;;4.43;1.40;;;6.40;99.90;;;;;;5040679;28;20053;-63
2023/01/15 12:29:59;;;;;;;6.05;1.25;;;6.10;99.90;;;;;;5038318;28;20036;-61
2023/01/15 12:32:36;;;;;;;8.20;1.45;;;5.80;99.90;;;;;;5040807;28;20079;-63
2023/01/15 12:35:12;;;;;;;5.20;1.17;;;5.70;99.90;;;;;;5039564;28;20052;-63
2023/01/15 12:37:55;;;;;;;5.38;1.00;;;5.50;99.90;;;;;;5039293;28;20167;-62
2023/01/15 12:40:31;;;;;;;7.05;1.48;;;5.50;99.90;;;;;;5041451;28;20510;-62
2023/01/15 12:45:48;;;;;;;4.43;1.23;;;5.40;99.90;;;;;;5041581;28;20140;-61
2023/01/15 12:48:25;;;;;;;4.68;1.70;;;5.40;99.90;;;;;;5026951;28;20049;-63
2023/01/15 12:50:55;;;;;;;7.47;1.42;;;5.40;99.90;;;;;;5025734;28;20080;-63
2023/01/15 12:53:26;;;;;;;6.35;1.42;;;5.50;99.90;;;;;;5041831;28;20055;-62
2023/01/15 12:56:12;;;;;;;5.75;1.42;;;5.50;99.90;;;;;;5042369;28;20694;-62
2023/01/15 12:58:59;;;;;;;7.85;1.60;;;5.50;99.90;;;;;;5041116;28;21083;-62
2023/01/15 13:02:03;;;;;;;4.82;1.20;;;5.50;99.90;;;;;;5022165;28;20155;-63
2023/01/15 13:04:56;;;;;;;4.97;1.30;;;5.50;99.90;;;;;;5023348;28;20063;-63
2023/01/15 13:07:32;;;;;;;5.50;1.33;;;5.50;99.90;;;;;;5042994;28;20116;-63
2023/01/15 13:10:16;;;;;;;5.35;1.38;;;5.40;99.90;;;;;;5038632;28;20401;-63
2023/01/15 13:12:42;;;;;;;7.90;1.75;;;5.50;99.90;;;;;;5005414;28;20586;-62
2023/01/15 13:15:16;;;;;;;5.72;1.70;;;5.50;99.90;;;;;;5039318;28;20120;-62
2023/01/15 13:18:16;;;;;;;9.25;2.10;;;5.50;99.90;;;;;;5039518;28;20040;-62
2023/01/15 13:20:50;;;;;;;9.18;1.90;;;5.50;99.90;;;;;;5048001;28;20060;-63
2023/01/15 13:23:50;;;;;;;7.97;1.73;;;5.50;99.90;;;;;;5044857;28;20053;-60
2023/01/15 13:26:22;;;;;;;6.57;1.30;;;5.50;99.90;;;;;;5041830;28;20057;-62
2023/01/15 13:28:54;;;;;;;9.57;1.70;;;5.50;99.90;;;;;;5007231;28;20041;-61
2023/01/15 13:31:23;;;;;;;10.82;1.90;;;5.50;99.90;;;;;;5044358;28;20044;-63
2023/01/15 13:33:54;;;;;;;7.22;1.75;;;5.40;99.90;;;;;;5044771;28;20049;-62
2023/01/15 13:36:30;;;;;;;7.75;1.38;;;5.50;99.90;;;;;;5043768;28;20178;-61
2023/01/15 13:38:59;;;;;;;11.10;1.40;;;5.40;99.90;;;;;;5043920;28;20495;-63
2023/01/15 13:44:25;;;;;;;8.07;1.88;;;5.40;99.90;;;;;;5023298;28;20077;-63
2023/01/15 13:47:16;;;;;;;10.30;1.80;;;5.40;99.90;;;;;;5043099;28;20041;-62
2023/01/15 13:49:52;;;;;;;3.92;1.00;;;5.40;99.90;;;;;;5043899;28;20454;-62
2023/01/15 13:52:34;;;;;;;3.00;0.82;;;5.30;99.90;;;;;;5045782;28;20041;-62
2023/01/15 13:55:24;;;;;;;1.40;0.50;;;5.30;99.90;;;;;;5013657;28;20047;-62
2023/01/15 13:57:50;;;;;;;4.20;0.95;;;5.20;99.90;;;;;;5042443;28;20044;-62
2023/01/15 14:00:28;;;;;;;3.97;0.80;;;5.10;99.90;;;;;;5039856;28;20090;-62
2023/01/15 14:03:00;;;;;;;4.82;0.70;;;5.00;99.90;;;;;;5016517;28;20045;-63